Latest Weather Observations for Maryborough

IDQ60801

Issued at 7:02 am EST Friday 22 October 2021 (issued every 10 minutes, with the page automatically refreshed every 10 minutes)

About weather observations | Map of weather stations | Latest weather observations for QLD | Other Formats
Station Details ID: 040126 Name: MARYBOROUGH Lat: -25.51 Lon: 152.72 Height: 8.98 m
Data from the previous 72 hours. | See also: Recent months at Maryborough
Date/Time
EST
Temp
°C
App
Temp
°C
Dew
Point
°C
Rel
Hum
%
Delta-T
°C
Wind Press
QNH
hPa
Press
MSL
hPa
Rain since
9am
mm
Dir  Spd
km/h
Gust
km/h
Spd
kts
Gust
kts
22/07:00am 22.4 25.8 21.6 95 0.5 NNE 6 11 3 6 1015.5 1015.4 4.6
22/06:30am 20.8 24.4 20.6 99 0.1 ENE 2 9 1 5 1015.4 1015.3 4.6
22/06:00am 20.7 22.9 20.5 99 0.1 SSE 9 15 5 8 1015.0 1014.9 4.6
22/05:30am 20.6 23.7 20.3 98 0.2 E 4 7 2 4 1014.4 1014.3 4.0
22/05:00am 20.5 22.9 20.0 97 0.3 NE 7 9 4 5 1014.0 1013.9 3.8
22/04:30am 20.8 24.1 20.0 95 0.5 ESE 2 9 1 5 1013.8 1013.7 3.8
22/04:00am 20.7 23.3 20.0 96 0.4 E 6 7 3 4 1013.6 1013.5 3.8
22/03:30am 20.6 23.2 20.1 97 0.3 ENE 6 7 3 4 1013.4 1013.3 3.8
22/03:00am 20.5 23.0 19.8 96 0.4 ENE 6 9 3 5 1013.3 1013.2 3.8
22/02:30am 20.5 22.7 19.5 94 0.6 ENE 7 13 4 7 1013.4 1013.3 3.6
22/02:25am 20.5 22.3 19.5 94 0.6 NE 9 17 5 9 1013.5 1013.4 3.6
22/02:00am 20.7 21.9 20.0 96 0.4 NW 13 17 7 9 1013.5 1013.4 2.6
22/01:51am 20.7 22.6 19.7 94 0.6 NW 9 19 5 10 1013.5 1013.4 1.2
22/01:30am 20.5 22.5 18.8 90 1.1 ENE 6 9 3 5 1013.3 1013.2 0.0
22/01:00am 21.1 23.2 19.0 88 1.3 NE 6 9 3 5 1013.7 1013.6 0.0
22/12:30am 21.0 23.8 18.8 87 1.4 E 2 6 1 3 1014.1 1014.0 0.0
22/12:00am 21.2 24.0 18.8 86 1.5 E 2 6 1 3 1014.2 1014.1 0.0
 
Date/Time
EST
Temp
°C
App
Temp
°C
Dew
Point
°C
Rel
Hum
%
Delta-T
°C
Wind Press
QNH
hPa
Press
MSL
hPa
Rain since
9am
mm
Dir  Spd
km/h
Gust
km/h
Spd
kts
Gust
kts
21/11:30pm 20.9 23.9 18.5 86 1.5 CALM 0 0 0 0 1014.3 1014.2 0.0
21/11:00pm 21.3 24.4 18.7 85 1.6 CALM 0 6 0 3 1014.5 1014.4 0.0
21/10:30pm 20.8 23.8 18.4 86 1.5 CALM 0 4 0 2 1014.8 1014.7 0.0
21/10:00pm 21.1 23.2 18.9 87 1.4 ESE 6 7 3 4 1014.9 1014.8 0.0
21/09:30pm 21.3 24.5 18.9 86 1.5 CALM 0 6 0 3 1014.7 1014.6 0.0
21/09:00pm 21.0 22.8 18.2 84 1.7 NE 6 7 3 4 1014.6 1014.5 0.0
21/08:30pm 20.9 22.7 18.3 85 1.6 NE 6 7 3 4 1014.6 1014.5 0.0
21/08:00pm 20.5 22.0 17.5 83 1.8 NE 6 7 3 4 1014.4 1014.3 0.0
21/07:30pm 21.8 23.7 17.6 77 2.6 NE 4 9 2 5 1013.8 1013.7 0.0
21/07:00pm 22.5 24.0 17.6 74 3.0 NE 6 9 3 5 1013.3 1013.2 0.0
21/06:30pm 22.9 24.2 17.6 72 3.3 N 7 11 4 6 1013.0 1012.9 0.0
21/06:00pm 23.1 23.7 16.9 68 3.8 NNE 9 15 5 8 1012.3 1012.2 0.0
21/05:30pm 23.9 24.1 16.7 64 4.4 N 11 19 6 10 1011.6 1011.5 0.0
21/05:00pm 24.8 24.9 16.5 60 5.1 NNE 11 20 6 11 1010.8 1010.7 0.0
21/04:30pm 25.3 24.8 15.9 56 5.7 N 13 20 7 11 1010.5 1010.4 0.0
21/04:00pm 25.9 24.8 15.3 52 6.4 NNE 15 22 8 12 1010.1 1010.0 0.0
21/03:30pm 27.6 26.2 14.6 45 7.8 NNE 15 24 8 13 1010.3 1010.2 0.0
21/03:00pm 28.3 26.8 13.0 39 9.0 NE 13 20 7 11 1010.7 1010.6 0.0
21/02:30pm 28.3 26.9 13.4 40 8.8 NE 13 22 7 12 1010.8 1010.7 0.0
21/02:00pm 28.5 27.9 13.6 40 8.9 NE 9 19 5 10 1010.9 1010.8 0.0
21/01:30pm 28.5 27.7 12.8 38 9.2 ENE 9 15 5 8 1011.2 1011.1 0.0
21/01:00pm 28.1 25.9 10.8 34 9.8 NNE 13 20 7 11 1011.5 1011.4 0.0
21/12:30pm 28.4 28.3 15.0 44 8.1 N 9 19 5 10 1012.0 1011.9 0.0
21/12:00pm 28.0 26.9 14.3 43 8.2 N 13 28 7 15 1012.5 1012.4 0.0
21/11:30am 27.5 26.4 14.2 44 8.0 N 13 19 7 10 1012.9 1012.8 0.0
21/11:00am 27.3 27.2 16.0 50 6.9 NNE 11 20 6 11 1013.4 1013.3 0.0
21/10:30am 26.9 26.6 14.3 46 7.5 NE 9 15 5 8 1013.8 1013.7 0.0
21/10:00am 26.5 25.8 14.3 47 7.3 NE 11 17 6 9 1014.2 1014.1 0.0
21/09:30am 25.7 25.5 15.7 54 6.1 ENE 11 19 6 10 1014.0 1013.9 0.0
21/09:00am 24.8 25.5 18.0 66 4.3 NNE 11 19 6 10 1013.7 1013.6 3.2
21/08:30am 24.1 24.6 18.3 70 3.7 ENE 13 19 7 10 1014.0 1013.9 3.2
21/08:00am 23.6 25.9 19.9 80 2.4 NE 7 11 4 6 1014.2 1014.1 3.2
21/07:30am 22.1 24.0 18.5 80 2.3 E 6 9 3 5 1014.2 1014.1 3.2
21/07:00am 20.3 21.9 17.9 86 1.5 SSE 6 7 3 4 1014.1 1014.0 3.2
21/06:30am 18.0 20.1 16.3 90 1.0 CALM 0 0 0 0 1014.0 1013.9 3.2
21/06:00am 15.8 17.6 15.5 98 0.2 CALM 0 0 0 0 1013.7 1013.6 3.2
21/05:30am 14.9 16.3 14.4 97 0.3 CALM 0 0 0 0 1013.5 1013.4 3.2
21/05:00am 15.5 15.9 14.7 95 0.5 SW 6 9 3 5 1013.3 1013.2 3.2
21/04:30am 15.0 14.8 13.7 92 0.7 SSW 7 7 4 4 1013.1 1013.0 3.2
21/04:00am 15.6 15.7 14.0 90 0.9 SW 6 9 3 5 1013.1 1013.0 3.2
21/03:30am 15.9 15.9 14.3 90 0.9 WSW 7 11 4 6 1013.2 1013.1 3.2
21/03:00am 15.4 15.9 14.1 92 0.7 S 4 7 2 4 1012.8 1012.7 3.2
21/02:30am 14.9 14.3 13.6 92 0.7 SSE 9 9 5 5 1012.9 1012.8 3.2
21/02:00am 15.2 14.6 13.4 89 1.0 SSW 9 13 5 7 1013.0 1012.9 3.2
21/01:30am 14.7 14.1 13.4 92 0.7 S 9 11 5 6 1012.7 1012.6 3.2
21/01:00am 14.4 14.4 13.6 95 0.4 WSW 6 7 3 4 1012.9 1012.8 3.2
21/12:30am 14.3 15.1 13.8 97 0.3 WSW 2 7 1 4 1013.1 1013.0 3.2
21/12:00am 14.4 15.5 13.6 95 0.4 CALM 0 0 0 0 1013.7 1013.6 3.2
 
Date/Time
EST
Temp
°C
App
Temp
°C
Dew
Point
°C
Rel
Hum
%
Delta-T
°C
Wind Press
QNH
hPa
Press
MSL
hPa
Rain since
9am
mm
Dir  Spd
km/h
Gust
km/h
Spd
kts
Gust
kts
20/11:30pm 14.5 15.6 13.4 93 0.6 CALM 0 0 0 0 1013.7 1013.6 3.2
20/11:00pm 15.2 15.0 13.6 90 0.9 NNW 7 13 4 7 1014.1 1014.0 3.2
20/10:30pm 15.4 15.4 13.6 89 1.0 WSW 6 7 3 4 1014.4 1014.3 3.2
20/10:00pm 15.7 15.6 13.4 86 1.3 WSW 6 7 3 4 1014.5 1014.4 3.2
20/09:30pm 15.4 16.5 13.6 89 1.0 CALM 0 0 0 0 1014.3 1014.2 3.2
20/09:00pm 16.0 15.7 13.3 84 1.5 E 7 11 4 6 1013.8 1013.7 3.2
20/08:30pm 16.4 15.2 12.9 80 1.9 S 11 15 6 8 1013.8 1013.7 3.2
20/08:00pm 17.0 15.6 13.5 80 2.0 S 13 15 7 8 1013.4 1013.3 3.2
20/07:30pm 17.5 15.3 13.4 77 2.3 SSW 17 20 9 11 1013.4 1013.3 3.2
20/07:00pm 18.5 17.6 12.5 68 3.3 N 9 17 5 9 1012.8 1012.7 3.2
20/06:30pm 19.1 15.9 11.9 63 4.0 NW 20 32 11 17 1012.4 1012.3 3.2
20/06:00pm 18.3 13.5 11.8 66 3.6 NNW 28 41 15 22 1011.6 1011.5 3.2
20/05:31pm 17.3 13.0 13.2 77 2.3 NW 28 41 15 22 1011.9 1011.8 3.2
20/05:30pm 17.1 12.9 13.4 79 2.1 NW 28 41 15 22 1012.0 1011.9 3.2
20/05:00pm 18.0 14.4 13.1 73 2.8 N 24 33 13 18 1012.0 1011.9 3.0
20/04:30pm 18.3 15.8 14.0 76 2.5 NW 20 33 11 18 1012.7 1012.6 2.6
20/04:29pm 18.2 15.2 13.7 75 2.6 NW 22 33 12 18 1012.8 1012.7 2.6
20/04:11pm 21.6 22.0 18.2 81 2.1 S 13 24 7 13 1012.9 1012.8 1.0
20/04:02pm 21.6 22.2 17.8 79 2.4 WSW 11 26 6 14 1012.9 1012.8 0.2
20/04:00pm 22.2 23.3 18.0 77 2.6 WNW 9 26 5 14 1013.0 1012.9 0.2
20/03:32pm 25.1 24.7 16.3 58 5.4 N 13 20 7 11 1012.1 1012.0 0.0
20/03:30pm 25.1 24.8 16.5 59 5.3 NNE 13 20 7 11 1012.0 1011.9 0.0
20/03:22pm 25.4 25.1 16.5 57 5.5 NNE 13 24 7 13 1011.7 1011.6 0.0
20/03:15pm 25.5 25.6 16.6 58 5.5 NE 11 17 6 9 1011.5 1011.4 0.0
20/03:02pm 26.1 25.8 16.4 55 6.0 ENE 13 26 7 14 1011.4 1011.3 0.0
20/03:00pm 26.3 26.0 16.5 54 6.1 ENE 13 26 7 14 1011.4 1011.3 0.0
20/02:53pm 27.1 26.6 17.0 54 6.3 NE 15 24 8 13 1011.2 1011.1 0.0
20/02:36pm 27.0 26.9 16.9 54 6.3 NE 13 22 7 12 1011.3 1011.2 0.0
20/02:30pm 27.1 26.4 16.4 52 6.6 NE 15 22 8 12 1011.5 1011.4 0.0
20/02:23pm 28.2 27.9 17.4 52 6.8 NE 15 22 8 12 1011.4 1011.3 0.0
20/02:00pm 27.6 27.1 16.9 52 6.7 NNE 15 24 8 13 1011.0 1010.9 0.0
20/01:52pm 27.6 27.1 16.9 52 6.7 NNE 15 24 8 13 1011.4 1011.3 0.0
20/01:30pm 26.3 25.2 16.3 54 6.2 NE 17 26 9 14 1011.6 1011.5 0.0
20/01:00pm 28.7 27.9 15.2 43 8.2 NE 13 20 7 11 1012.1 1012.0 0.0
20/12:30pm 28.4 27.7 15.3 45 8.0 NE 13 20 7 11 1012.6 1012.5 0.0
20/12:00pm 28.3 28.1 16.6 49 7.3 ESE 13 19 7 10 1013.0 1012.9 0.0
20/11:30am 27.5 28.5 16.8 52 6.7 NNE 7 17 4 9 1013.9 1013.8 0.0
20/11:00am 27.4 28.2 17.3 54 6.3 ENE 9 17 5 9 1014.3 1014.2 0.0
20/10:30am 26.5 26.8 16.1 52 6.4 NE 9 17 5 9 1014.5 1014.4 0.0
20/10:00am 25.7 26.2 16.5 56 5.7 N 9 15 5 8 1015.0 1014.9 0.0
20/09:30am 25.5 26.3 17.2 60 5.2 S 9 11 5 6 1015.2 1015.1 0.0
20/09:00am 24.6 25.9 17.6 65 4.4 SE 7 13 4 7 1015.5 1015.4 0.0
20/08:30am 23.9 25.8 18.5 72 3.4 E 6 11 3 6 1015.6 1015.5 0.0
20/08:00am 22.3 23.8 18.1 77 2.6 SE 7 9 4 5 1015.6 1015.5 0.0
20/07:30am 20.7 21.2 18.3 86 1.5 S 13 15 7 8 1015.0 1014.9 0.0
20/07:00am 19.4 20.9 17.7 90 1.0 W 6 9 3 5 1015.0 1014.9 0.0
20/06:30am 18.1 19.5 17.9 99 0.1 WNW 7 9 4 5 1014.8 1014.7 0.0
20/06:00am 17.0 18.0 16.8 99 0.1 NW 7 9 4 5 1014.7 1014.6 0.0
20/05:44am 16.6 18.4 16.4 99 0.1 WSW 2 6 1 3 1014.6 1014.5 0.0
20/05:35am 16.4 17.3 16.2 99 0.1 WSW 6 7 3 4 1014.6 1014.5 0.0
20/05:30am 16.4 17.3 16.2 99 0.1 WSW 6 7 3 4 1014.6 1014.5 0.0
20/05:25am 16.4 17.1 16.2 99 0.1 WSW 7 11 4 6 1014.7 1014.6 0.0
20/05:18am 16.4 17.1 16.2 99 0.1 SW 7 11 4 6 1014.7 1014.6 0.0
20/05:11am 16.3 17.0 16.1 99 0.1 SW 7 9 4 5 1014.6 1014.5 0.0
20/05:00am 16.1 17.7 15.9 99 0.1 SSW 2 9 1 5 1014.4 1014.3 0.0
20/04:44am 16.1 17.7 15.9 99 0.1 SSW 2 7 1 4 1014.0 1013.9 0.0
20/04:30am 15.7 16.2 15.5 99 0.1 SSW 7 9 4 5 1013.7 1013.6 0.0
20/04:00am 15.7 16.4 15.5 99 0.1 SSW 6 11 3 6 1013.1 1013.0 0.0
20/03:30am 16.3 17.2 16.1 99 0.1 SE 6 13 3 7 1013.7 1013.6 0.0
20/03:00am 16.5 17.5 16.3 99 0.1 SSE 6 7 3 4 1013.2 1013.1 0.0
20/02:30am 17.2 17.9 17.0 99 0.1 ESE 9 13 5 7 1013.2 1013.1 0.0
20/02:00am 17.3 17.6 17.1 99 0.1 ESE 11 17 6 9 1012.8 1012.7 0.0
20/01:46am 17.5 17.9 17.3 99 0.1 ESE 11 15 6 8 1013.6 1013.5 0.0
20/01:36am 17.6 18.1 17.4 99 0.1 ESE 11 15 6 8 1013.8 1013.7 0.0
20/01:35am 17.5 17.9 17.3 99 0.1 ESE 11 15 6 8 1013.8 1013.7 0.0
20/01:30am 17.1 18.1 16.9 99 0.1 E 7 13 4 7 1014.0 1013.9 0.0
20/01:17am 17.2 18.8 17.0 99 0.1 NNE 4 7 2 4 1014.5 1014.4 0.0
20/01:00am 17.7 19.0 17.5 99 0.1 N 7 9 4 5 1014.8 1014.7 0.0
20/12:30am 17.4 19.5 17.2 99 0.1 NNW 2 7 1 4 1014.6 1014.5 0.0
20/12:00am 16.8 19.0 16.6 99 0.1 CALM 0 0 0 0 1014.4 1014.3 0.0
 
Date/Time
EST
Temp
°C
App
Temp
°C
Dew
Point
°C
Rel
Hum
%
Delta-T
°C
Wind Press
QNH
hPa
Press
MSL
hPa
Rain since
9am
mm
Dir  Spd
km/h
Gust
km/h
Spd
kts
Gust
kts
19/11:52pm 16.9 19.2 16.7 99 0.1 CALM 0 0 0 0 1014.4 1014.3 0.0
19/11:35pm 17.0 19.3 16.8 99 0.1 CALM 0 0 0 0 1014.6 1014.5 0.0
19/11:30pm 17.1 19.5 16.9 99 0.1 CALM 0 0 0 0 1014.5 1014.4 0.0
19/11:00pm 17.2 19.5 16.7 97 0.3 CALM 0 0 0 0 1014.6 1014.5 0.0
19/10:30pm 17.8 19.8 17.0 95 0.5 WSW 2 6 1 3 1014.9 1014.8 0.0
19/10:00pm 18.4 21.0 17.4 94 0.6 CALM 0 0 0 0 1015.0 1014.9 0.0
19/09:30pm 19.2 20.3 17.0 87 1.3 W 7 9 4 5 1014.9 1014.8 0.0
19/09:00pm 19.0 20.1 17.0 88 1.2 NW 7 11 4 6 1014.9 1014.8 0.0
19/08:30pm 20.3 22.5 17.5 84 1.7 NNE 2 9 1 5 1014.7 1014.6 0.0
19/08:00pm 21.1 21.5 17.3 79 2.3 NE 11 19 6 10 1013.8 1013.7 0.0
19/07:30pm 21.6 22.1 17.4 77 2.6 NW 11 19 6 10 1014.3 1014.2 0.0
19/07:23pm 21.7 22.6 17.5 77 2.6 S 9 22 5 12 1014.6 1014.5 0.0
19/07:13pm 21.7 21.1 17.5 77 2.6 E 17 24 9 13 1013.3 1013.2 0.0
19/07:03pm 21.7 23.2 17.7 78 2.5 WNW 6 9 3 5 1015.3 1015.2 0.0
19/07:00pm 21.7 23.2 17.5 77 2.6 WNW 6 9 3 5 1015.4 1015.3 0.0
19/06:30pm 21.8 22.6 17.2 75 2.8 NW 9 13 5 7 1014.8 1014.7 0.0
19/06:00pm 21.8 22.4 16.7 73 3.1 N 9 11 5 6 1013.7 1013.6 0.0
19/05:30pm 22.6 23.0 16.2 67 3.9 N 9 15 5 8 1013.5 1013.4 0.0
19/05:00pm 23.4 23.3 16.0 63 4.5 NNE 11 20 6 11 1012.9 1012.8 0.0
19/04:30pm 24.3 24.4 16.6 62 4.7 NNE 11 17 6 9 1012.7 1012.6 0.0
19/04:00pm 25.4 25.7 16.0 56 5.7 ENE 9 19 5 10 1012.0 1011.9 0.0
19/03:30pm 25.5 25.6 16.4 57 5.6 N 11 19 6 10 1012.0 1011.9 0.0
19/03:00pm 25.9 25.4 15.9 54 6.1 NNE 13 20 7 11 1012.3 1012.2 0.0
19/02:30pm 24.9 24.5 16.1 58 5.4 NNE 13 24 7 13 1012.3 1012.2 0.0
19/02:00pm 25.7 25.8 14.5 50 6.7 NE 7 11 4 6 1012.5 1012.4 0.0
19/01:30pm 26.6 26.3 14.4 47 7.3 NE 9 15 5 8 1012.8 1012.7 0.0
19/01:00pm 28.0 27.3 16.3 49 7.2 NE 15 30 8 16 1013.2 1013.1 0.0
19/12:30pm 27.9 28.5 16.8 50 6.9 NW 9 15 5 8 1014.0 1013.9 0.0
19/12:00pm 26.4 26.0 15.1 49 6.8 SSE 11 24 6 13 1014.7 1014.6 0.0
19/11:30am 26.1 25.3 15.2 51 6.6 SW 13 22 7 12 1015.4 1015.3 0.0
19/11:00am 25.8 25.9 15.5 53 6.2 SW 9 17 5 9 1015.7 1015.6 0.0
19/10:30am 25.2 26.2 16.4 58 5.4 WSW 6 9 3 5 1016.1 1016.0 0.0
19/10:00am 24.3 24.7 14.7 55 5.7 SW 6 9 3 5 1016.4 1016.3 0.0
19/09:30am 23.0 23.4 15.3 62 4.6 SE 7 11 4 6 1016.7 1016.6 0.0
19/09:00am 22.0 22.1 15.4 66 3.9 SSW 9 19 5 10 1016.8 1016.7 3.2
19/08:30am 21.2 21.4 15.7 71 3.3 SSE 9 13 5 7 1016.7 1016.6 3.0
19/08:00am 20.1 20.0 16.1 78 2.4 SSE 11 15 6 8 1016.6 1016.5 3.0
19/07:30am 18.9 19.6 15.6 81 1.9 SSE 6 9 3 5 1016.4 1016.3 3.0

Other formats

Comma delimited format used in spreadsheet applications
http://www.bom.gov.au/fwo/IDQ60801/IDQ60801.94567.axf

JavaScript Object Notation format (JSON) in row-major order
http://www.bom.gov.au/fwo/IDQ60801/IDQ60801.94567.json

Data quality

Most of these data are generated automatically and are frequently updated. Quality checks on data are not normally performed. It is possible for incorrect values to appear. Refer to information at About Latest Weather Observations and please check the disclaimer before using these data.